Detall de PIREP

Printer-friendly versionPDF version

[2013/08/04 15:12:00]
Flight IATA:CT1004
Pilot Number:012
Company ICAO:CAT
Aircraft Type:F70/A
PAX:79
Aircraft Registration:PFJ
Departing Airport: LEMD
Destination Airport: LFMT
Alternate Airport:LFMP
Online: VATSIM
Route:PINAR UN870 SEGRE UN871 GAI/N0300F180 G39 BRUSC
Flight Level:F340
No Slew and time accel
No pause
Crash detect
Detect pilot in Cockpit between each 30 and 45 minutes
15:12 Zero fuel Weight: 70180 Lbs, Fuel Weight: 9596 Lbs
15:12 VATSIM:LEMD 041500Z 22003KT CAVOK 36/02 Q1018 NOSIG
15:12 VATSIM:LFMT 041500Z 20011KT CAVOK 30/21 Q1017 NOSIG
15:12 VOICE CATALONIAN / SUMMER CHARTER
15:16 Parking Brakes off
15:18 Take-off
15:18 Take off Weight: 79488 Lbs
15:18 Wind: 221º @ 003 Knots Heading: 359º
15:18 POS N40º 31´ 11´´ W003º 33´ 33´´
15:18 Gear Up: 145 Knots
15:18 Flaps:2 at 145 Knots
15:19 Flaps:1 at 163 Knots
15:20 Flaps:0 at 195 Knots
15:33 Wind:259º@024 Knots Heading: 029º Ground Speed: 378 Knots Altitude 27559 ft
15:37 TOC
15:37 Fuel Weight: 7319 Lb
15:48 Wind:261º@036 Knots Heading: 032º Ground Speed: 477 Knots Altitude 34166 ft
16:03 Wind:266º@036 Knots Heading: 051º Ground Speed: 486 Knots Altitude 34183 ft
16:04 TOD
16:04 Fuel Weight: 5426 Lb
16:18 Wind:218º@010 Knots Heading: 103º Ground Speed: 300 Knots Altitude 10173 ft
16:24 Flaps:1 at 187 Knots
16:25 Flaps:2 at 150 Knots
16:25 Gear Down: 148 Knots
16:26 Flaps:3 at 131 Knots
16:27 Flaps:4 at 136 Knots
16:28 TouchDown:Rate -235 ft/min Speed: 109 Knots
16:29 VATSIM:LFMT 041600Z 20010KT CAVOK 29/21 Q1017 NOSIG
16:29 Land
16:29 Wind:199º@010 Knots
16:29 Heading: 306º
16:29 Flight Duration: 01:11
16:29 Landing Weight: 74517 Lbs
16:29 POS N43º 34´ 48´´ E003º 58´ 06´´
16:31 Parking brakes on
16:31 Block to Block Duration: 01:15
16:31 Final Fuel: 4252 Lbls
16:31 Spent Fuel: 5343 Lbls
16:31 Flight Length: 453 NM
16:31 TOD Land Length: 134 NM

Exportar CSV

Powered by Drupal - Modified by Danger4k